createdAt,value
2017-01-18T00:00:59.954Z,69.24
2017-01-18T00:02:13.743Z,69.52
2017-01-18T00:03:27.172Z,69.43
2017-01-18T00:04:40.739Z,69.33
2017-01-18T00:05:54.249Z,69.43
2017-01-18T00:07:09.235Z,69.52
2017-01-18T00:08:22.795Z,69.33
2017-01-18T00:09:36.242Z,69.52
2017-01-18T00:10:49.679Z,69.71
2017-01-18T00:12:03.781Z,69.52
2017-01-18T00:13:19.144Z,69.81
2017-01-18T00:14:33.183Z,69.81
2017-01-18T00:15:47.446Z,69.81
2017-01-18T00:17:01.319Z,70.09
2017-01-18T00:18:16.258Z,70.18
2017-01-18T00:19:31.099Z,70.84
2017-01-18T00:20:45.196Z,70.47
2017-01-18T00:21:58.686Z,70.65
2017-01-18T00:23:14.446Z,70.56
2017-01-18T00:24:28.579Z,70.56
2017-01-18T00:25:43.584Z,70.75
2017-01-18T00:26:57.406Z,70.47
2017-01-18T00:28:11.598Z,70.47
2017-01-18T00:29:25.522Z,70.75
2017-01-18T00:30:39.225Z,70.84
2017-01-18T00:31:53.440Z,70.56
2017-01-18T00:33:08.114Z,70.56
2017-01-18T00:34:22.188Z,70.47
2017-01-18T00:35:36.080Z,70.56
2017-01-18T00:36:49.581Z,70.75
2017-01-18T00:38:04.527Z,70.47
2017-01-18T00:39:18.021Z,70.47
2017-01-18T00:40:31.638Z,70.47
2017-01-18T00:41:45.201Z,71.12
2017-01-18T00:42:58.631Z,71.03
2017-01-18T00:44:14.162Z,70.84
2017-01-18T00:45:27.597Z,71.41
2017-01-18T00:46:41.038Z,71.6
2017-01-18T00:47:54.489Z,71.6
2017-01-18T00:49:08.571Z,71.6
2017-01-18T00:50:22.315Z,71.6
2017-01-18T00:51:36.408Z,71.69
2017-01-18T00:52:49.851Z,71.6
2017-01-18T00:54:03.720Z,71.6
2017-01-18T00:55:17.545Z,71.41
2017-01-18T00:56:31.246Z,71.5
2017-01-18T00:57:44.668Z,71.41
2017-01-18T00:58:58.089Z,71.41
2017-01-18T01:00:11.554Z,71.88
2017-01-18T01:01:25.179Z,71.5
2017-01-18T01:02:38.962Z,71.69
2017-01-18T01:03:52.362Z,71.6
2017-01-18T01:05:05.857Z,71.6
2017-01-18T01:06:19.326Z,71.5
2017-01-18T01:07:32.769Z,71.69
2017-01-18T01:08:46.668Z,71.5
2017-01-18T01:10:03.332Z,71.69
2017-01-18T01:11:16.936Z,71.79
2017-01-18T01:12:30.411Z,71.98
2017-01-18T01:13:43.920Z,71.69
2017-01-18T01:14:58.073Z,71.5
2017-01-18T01:16:11.561Z,71.5
2017-01-18T01:17:25.665Z,71.6
2017-01-18T01:18:39.276Z,71.12
2017-01-18T01:19:52.732Z,72.07
2017-01-18T01:21:07.116Z,71.69
2017-01-18T01:22:20.754Z,71.6
2017-01-18T01:23:34.655Z,71.41
2017-01-18T01:24:48.102Z,71.69
2017-01-18T01:26:01.591Z,71.41
2017-01-18T01:27:15.753Z,71.6
2017-01-18T01:28:29.238Z,71.41
2017-01-18T01:29:42.647Z,71.31
2017-01-18T01:30:56.178Z,71.31
2017-01-18T01:32:09.667Z,71.22
2017-01-18T01:33:23.393Z,71.6
2017-01-18T01:34:38.767Z,70.84
2017-01-18T01:35:52.201Z,71.41
2017-01-18T01:37:07.565Z,71.41
2017-01-18T01:38:21.175Z,71.31
2017-01-18T01:39:37.097Z,71.6
2017-01-18T01:40:50.837Z,71.12
2017-01-18T01:42:04.351Z,71.31
2017-01-18T01:43:18.190Z,71.31
2017-01-18T01:44:31.643Z,70.94
2017-01-18T01:45:46.232Z,71.5
2017-01-18T01:47:00.316Z,71.41
2017-01-18T01:48:14.616Z,71.41
2017-01-18T01:49:28.072Z,71.31
2017-01-18T01:50:41.537Z,71.5
2017-01-18T01:51:55.369Z,71.6
2017-01-18T01:53:09.492Z,71.79
2017-01-18T01:54:22.948Z,71.5
2017-01-18T01:55:36.384Z,71.6
2017-01-18T01:56:49.843Z,71.31
2017-01-18T01:58:04.052Z,71.22
2017-01-18T01:59:17.484Z,71.12
2017-01-18T02:00:31.401Z,71.5
2017-01-18T02:01:45.251Z,71.6
2017-01-18T02:02:58.713Z,71.12
2017-01-18T02:04:12.567Z,71.41
2017-01-18T02:05:26.029Z,71.31
2017-01-18T02:06:39.463Z,71.5
2017-01-18T02:07:52.901Z,71.5
2017-01-18T02:09:06.785Z,71.41
2017-01-18T02:10:20.384Z,71.41
2017-01-18T02:11:34.387Z,71.6
2017-01-18T02:12:47.808Z,71.5
2017-01-18T02:14:17.340Z,71.31
2017-01-18T02:15:31.598Z,70.84
2017-01-18T02:16:45.095Z,71.5
2017-01-18T02:17:58.524Z,71.79
2017-01-18T02:19:12.172Z,71.47
2017-01-18T02:20:26.311Z,71.22
2017-01-18T02:21:40.024Z,71.69
2017-01-18T02:22:53.458Z,71.6
2017-01-18T02:24:07.000Z,71.56
2017-01-18T02:25:20.524Z,71.56
2017-01-18T02:26:34.160Z,71.66
2017-01-18T02:27:48.567Z,71.47
2017-01-18T02:29:02.029Z,71.66
2017-01-18T02:30:16.005Z,71.75
2017-01-18T02:31:30.346Z,71.84
2017-01-18T02:32:43.814Z,71.66
2017-01-18T02:33:57.972Z,71.75
2017-01-18T02:35:11.472Z,71.84
2017-01-18T02:36:26.590Z,71.84
2017-01-18T02:37:40.017Z,71.66
2017-01-18T02:38:53.525Z,71.66
2017-01-18T02:40:07.206Z,71.47
2017-01-18T02:41:21.899Z,71.84
2017-01-18T02:42:35.296Z,72.03
2017-01-18T02:43:48.693Z,71.84
2017-01-18T02:45:02.531Z,72.03
2017-01-18T02:46:16.278Z,72.13
2017-01-18T02:47:31.046Z,72.32
2017-01-18T02:48:44.471Z,72.32
2017-01-18T02:49:57.911Z,72.32
2017-01-18T02:51:11.437Z,72.03
2017-01-18T02:52:25.243Z,72.22
2017-01-18T02:53:38.666Z,72.32
2017-01-18T02:54:52.095Z,72.03
2017-01-18T02:56:07.663Z,72.22
2017-01-18T02:57:22.854Z,71.75
2017-01-18T02:58:36.948Z,71.94
2017-01-18T02:59:50.390Z,71.56
2017-01-18T03:01:03.897Z,71.47
2017-01-18T03:02:18.547Z,71.66
2017-01-18T03:03:32.036Z,71.47
2017-01-18T03:04:45.920Z,71.84
2017-01-18T03:06:00.728Z,71.84
2017-01-18T03:07:15.827Z,71.75
2017-01-18T03:08:29.955Z,71.84
2017-01-18T03:09:50.700Z,71.66
2017-01-18T03:11:08.372Z,71.66
2017-01-18T03:12:21.862Z,71.37
2017-01-18T03:13:35.303Z,71.37
2017-01-18T03:14:54.421Z,71.28
2017-01-18T03:16:14.594Z,71.37
2017-01-18T03:17:35.615Z,71.47
2017-01-18T03:18:51.442Z,71.41
2017-01-18T03:20:10.522Z,71.5
2017-01-18T03:21:26.924Z,71.31
2017-01-18T03:22:40.726Z,71.12
2017-01-18T03:23:54.189Z,71.31
2017-01-18T03:25:07.606Z,71.5
2017-01-18T03:27:18.995Z,71.41
2017-01-18T03:28:32.498Z,71.37
2017-01-18T03:29:45.901Z,71.37
2017-01-18T03:30:59.351Z,71.09
2017-01-18T03:32:12.782Z,71.28
2017-01-18T03:33:26.237Z,71.56
2017-01-18T03:34:40.015Z,71.41
2017-01-18T03:35:53.466Z,71.37
2017-01-18T03:37:07.196Z,71.37
2017-01-18T03:38:20.660Z,71.75
2017-01-18T03:39:34.155Z,71.75
2017-01-18T03:40:47.859Z,71.75
2017-01-18T03:42:01.284Z,71.66
2017-01-18T03:43:14.696Z,71.5
2017-01-18T03:44:28.174Z,71.47
2017-01-18T03:45:41.717Z,71.12
2017-01-18T03:46:55.461Z,71.66
2017-01-18T03:48:08.856Z,71.28
2017-01-18T03:49:22.303Z,71.22
2017-01-18T03:50:35.773Z,70.94
2017-01-18T03:51:49.157Z,71
2017-01-18T03:53:02.836Z,71.31
2017-01-18T03:54:16.340Z,70.9
2017-01-18T03:55:31.140Z,71.41
2017-01-18T03:56:44.964Z,71.41
2017-01-18T03:57:58.385Z,71.41
2017-01-18T03:59:12.091Z,71.37
2017-01-18T04:00:25.608Z,71.28
2017-01-18T04:01:39.016Z,71.37
2017-01-18T04:02:52.429Z,71.41
2017-01-18T04:04:05.824Z,71.31
2017-01-18T04:05:19.598Z,71.03
2017-01-18T04:06:33.941Z,70.94
2017-01-18T04:07:47.346Z,71.12
2017-01-18T04:09:00.777Z,70.56
2017-01-18T04:10:14.209Z,70.56
2017-01-18T04:11:27.971Z,70.65
2017-01-18T04:12:41.433Z,70.75
2017-01-18T04:13:57.276Z,70.47
2017-01-18T04:15:10.660Z,70.09
2017-01-18T04:16:24.573Z,69.9
2017-01-18T04:17:38.366Z,69.81
2017-01-18T04:18:51.787Z,69.81
2017-01-18T04:20:05.262Z,69.81
2017-01-18T04:21:18.736Z,69.71
2017-01-18T04:22:32.299Z,69.9
2017-01-18T04:23:46.019Z,69.9
2017-01-18T04:24:59.889Z,69.52
2017-01-18T04:26:13.323Z,69.62
2017-01-18T04:27:28.059Z,69.71
2017-01-18T04:28:41.494Z,69.52
2017-01-18T04:29:55.195Z,69.43
2017-01-18T04:31:08.659Z,69.9
2017-01-18T04:32:22.335Z,69.33
2017-01-18T04:33:35.885Z,69.71
2017-01-18T04:34:49.287Z,69.52
2017-01-18T04:36:03.003Z,69.9
2017-01-18T04:37:16.433Z,69.81
2017-01-18T04:38:29.961Z,69.33
2017-01-18T04:39:43.458Z,69.05
2017-01-18T04:40:56.868Z,68.95
2017-01-18T04:42:10.584Z,68.95
2017-01-18T04:43:24.134Z,68.95
2017-01-18T04:44:37.582Z,69.05
2017-01-18T04:45:51.453Z,69.33
2017-01-18T04:47:05.079Z,69.14
2017-01-18T04:48:18.847Z,69.05
2017-01-18T04:49:32.335Z,69.05
2017-01-18T04:50:45.900Z,68.86
2017-01-18T04:51:59.317Z,68.76
2017-01-18T04:53:12.940Z,68.95
2017-01-18T04:54:26.735Z,69.05
2017-01-18T04:55:40.193Z,68.95
2017-01-18T04:56:53.621Z,69.33
2017-01-18T04:58:07.106Z,69.24
2017-01-18T04:59:20.686Z,68.86
2017-01-18T05:00:34.459Z,68.67
2017-01-18T05:02:07.129Z,69.14
2017-01-18T05:03:20.661Z,68.95
2017-01-18T05:04:34.171Z,69.05
2017-01-18T05:05:48.309Z,69.05
2017-01-18T05:07:01.755Z,69.14
2017-01-18T05:08:15.213Z,68.76
2017-01-18T05:09:28.668Z,69.14
2017-01-18T05:10:42.087Z,68.95
2017-01-18T05:11:56.213Z,68.95
2017-01-18T05:13:09.641Z,68.76
2017-01-18T05:14:23.154Z,68.86
2017-01-18T05:15:36.626Z,69.33
2017-01-18T05:16:50.116Z,68.95
2017-01-18T05:18:03.868Z,69.14
2017-01-18T05:19:17.358Z,69.05
2017-01-18T05:20:31.217Z,69.24
2017-01-18T05:21:45.130Z,68.95
2017-01-18T05:22:59.020Z,69.24
2017-01-18T05:24:14.577Z,69.05
2017-01-18T05:25:28.432Z,68.95
2017-01-18T05:26:42.442Z,68.76
2017-01-18T05:27:55.887Z,68.86
2017-01-18T05:29:09.424Z,69.71
2017-01-18T05:30:25.496Z,74.43
2017-01-18T05:31:39.112Z,71.98
2017-01-18T05:32:52.602Z,68.71
2017-01-18T05:34:06.656Z,68.04
2017-01-18T05:35:20.308Z,67.47
2017-01-18T05:36:34.548Z,67
2017-01-18T05:37:48.252Z,67.07
2017-01-18T05:39:01.696Z,67.16
2017-01-18T05:40:15.246Z,67.63
2017-01-18T05:41:29.148Z,68.2
2017-01-18T05:42:43.101Z,67.72
2017-01-18T05:43:57.692Z,68.2
2017-01-18T05:45:11.188Z,68.01
2017-01-18T05:46:24.714Z,68.39
2017-01-18T05:47:38.616Z,68.39
2017-01-18T05:48:52.490Z,68.76
2017-01-18T05:50:05.998Z,68.86
2017-01-18T05:51:19.992Z,68.86
2017-01-18T05:52:33.867Z,68.95
2017-01-18T05:53:47.338Z,68.76
2017-01-18T05:55:01.149Z,68.76
2017-01-18T05:56:14.764Z,69.24
2017-01-18T05:57:29.891Z,69.33
2017-01-18T05:58:43.410Z,69.05
2017-01-18T05:59:56.857Z,68.76
2017-01-18T06:01:10.607Z,69.14
2017-01-18T06:02:24.144Z,69.43
2017-01-18T06:03:37.593Z,69.43
2017-01-18T06:04:51.044Z,69.52
2017-01-18T06:06:04.490Z,69.81
2017-01-18T06:07:19.073Z,69.71
2017-01-18T06:08:32.781Z,70
2017-01-18T06:09:46.663Z,70.28
2017-01-18T06:11:00.106Z,70.09
2017-01-18T06:12:13.591Z,70.37
2017-01-18T06:13:27.458Z,70.56
2017-01-18T06:14:41.323Z,70.34
2017-01-18T06:15:54.830Z,70.47
2017-01-18T06:17:08.287Z,71.41
2017-01-18T06:18:22.620Z,71.37
2017-01-18T06:19:36.417Z,70.43
2017-01-18T06:20:50.031Z,70.62
2017-01-18T06:22:03.581Z,70.84
2017-01-18T06:23:17.121Z,70.72
2017-01-18T06:24:30.717Z,70.43
2017-01-18T06:25:44.445Z,70.81
2017-01-18T06:26:57.875Z,70.62
2017-01-18T06:28:11.486Z,70.24
2017-01-18T06:29:25.548Z,70.34
2017-01-18T06:30:39.036Z,70.53
2017-01-18T06:31:52.910Z,71.12
2017-01-18T06:33:06.456Z,71.19
2017-01-18T06:34:21.491Z,71.09
2017-01-18T06:35:35.454Z,71.09
2017-01-18T06:36:48.980Z,71.09
2017-01-18T06:38:02.726Z,71.09
2017-01-18T06:39:16.284Z,70.9
2017-01-18T06:40:29.728Z,71.56
2017-01-18T06:41:43.256Z,71
2017-01-18T06:42:56.723Z,71.09
2017-01-18T06:44:10.565Z,71
2017-01-18T06:45:24.158Z,71.37
2017-01-18T06:46:39.846Z,71.37
2017-01-18T06:47:53.736Z,71
2017-01-18T06:49:07.608Z,71.47
2017-01-18T06:51:28.870Z,71.37
2017-01-18T06:52:42.390Z,71.09
2017-01-18T06:53:56.018Z,70.9
2017-01-18T06:55:09.753Z,71.37
2017-01-18T06:56:23.466Z,71.28
2017-01-18T06:57:36.994Z,71.37
2017-01-18T06:58:50.468Z,71.09
2017-01-18T07:00:03.935Z,71
2017-01-18T07:01:17.603Z,71.09
2017-01-18T07:02:31.555Z,71.09
2017-01-18T07:03:45.419Z,70.62
2017-01-18T07:04:58.861Z,70.72
2017-01-18T07:06:13.567Z,69.96
2017-01-18T07:07:27.028Z,70.18
2017-01-18T07:08:40.783Z,70.37
2017-01-18T07:09:54.237Z,69.81
2017-01-18T07:11:07.834Z,69.71
2017-01-18T07:12:21.330Z,69.9
2017-01-18T07:13:34.762Z,70.53
2017-01-18T07:14:48.895Z,70.15
2017-01-18T07:16:02.894Z,70.37
2017-01-18T07:17:16.390Z,70
2017-01-18T07:18:29.816Z,70.28
2017-01-18T07:19:43.240Z,70
2017-01-18T07:20:56.911Z,69.71
2017-01-18T07:22:10.457Z,70.05
2017-01-18T07:23:24.088Z,70
2017-01-18T07:24:37.492Z,69.58
2017-01-18T07:25:50.906Z,69.81
2017-01-18T07:27:04.786Z,69.62
2017-01-18T07:28:19.046Z,69.49
2017-01-18T07:29:32.499Z,69.81
2017-01-18T07:30:45.975Z,70.15
2017-01-18T07:31:59.448Z,69.9
2017-01-18T07:33:13.213Z,69.96
2017-01-18T07:34:26.643Z,69.62
2017-01-18T07:35:40.534Z,69.9
2017-01-18T07:36:53.963Z,69.96
2017-01-18T07:38:08.713Z,69.77
2017-01-18T07:39:22.383Z,69.86
2017-01-18T07:40:35.821Z,69.96
2017-01-18T07:41:49.265Z,70.15
2017-01-18T07:43:03.622Z,70.15
2017-01-18T07:44:17.069Z,69.96
2017-01-18T07:45:30.821Z,69.86
2017-01-18T07:46:44.315Z,70.34
2017-01-18T07:47:58.249Z,70.24
2017-01-18T07:49:13.453Z,69.67
2017-01-18T07:50:26.905Z,70.05
2017-01-18T07:51:40.618Z,70.15
2017-01-18T07:52:54.115Z,69.67
2017-01-18T07:54:07.787Z,69.58
2017-01-18T07:55:21.243Z,69.49
2017-01-18T07:56:34.692Z,69.62
2017-01-18T07:57:48.840Z,69.11
2017-01-18T07:59:02.378Z,69.2
2017-01-18T08:00:15.836Z,69.39
2017-01-18T08:01:29.311Z,69.39
2017-01-18T08:02:42.868Z,69.3
2017-01-18T08:03:58.897Z,69.49
2017-01-18T08:05:12.371Z,69.3
2017-01-18T08:06:25.819Z,69.01
2017-01-18T08:07:39.685Z,69.01
2017-01-18T08:08:53.280Z,68.92
2017-01-18T08:10:07.048Z,68.92
2017-01-18T08:11:20.473Z,68.73
2017-01-18T08:12:34.122Z,68.63
2017-01-18T08:13:47.565Z,68.54
2017-01-18T08:15:01.093Z,68.44
2017-01-18T08:16:14.848Z,68.54
2017-01-18T08:17:28.295Z,68.73
2017-01-18T08:18:41.754Z,68.44
2017-01-18T08:19:55.271Z,68.82
2017-01-18T08:21:08.781Z,68.73
2017-01-18T08:22:22.770Z,69.11
2017-01-18T08:23:36.307Z,69.3
2017-01-18T08:24:49.944Z,68.76
2017-01-18T08:26:03.440Z,68.82
2017-01-18T08:27:16.878Z,68.73
2017-01-18T08:28:30.611Z,68.26
2017-01-18T08:29:44.479Z,68.54
2017-01-18T08:30:58.377Z,68.73
2017-01-18T08:32:11.821Z,68.73
2017-01-18T08:33:25.280Z,68.92
2017-01-18T08:34:39.085Z,68.92
2017-01-18T08:35:53.012Z,68.73
2017-01-18T08:37:06.944Z,68.63
2017-01-18T08:38:20.432Z,68.44
2017-01-18T08:39:34.160Z,68.39
2017-01-18T08:40:47.934Z,68.39
2017-01-18T08:42:01.472Z,68.48
2017-01-18T08:43:14.931Z,68.35
2017-01-18T08:44:28.348Z,68.29
2017-01-18T08:45:41.785Z,68.48
2017-01-18T08:46:55.625Z,68.39
2017-01-18T08:48:09.112Z,67.82
2017-01-18T08:49:22.590Z,67.91
2017-01-18T08:50:36.025Z,68.01
2017-01-18T08:51:49.522Z,67.82
2017-01-18T08:53:07.390Z,67.82
2017-01-18T08:54:24.711Z,68.01
2017-01-18T08:55:38.968Z,67.91
2017-01-18T08:56:53.064Z,67.91
2017-01-18T08:58:07.298Z,67.72
2017-01-18T08:59:21.471Z,67.91
2017-01-18T09:00:35.382Z,68.01
2017-01-18T09:02:08.530Z,67.63
2017-01-18T09:03:22.795Z,67.72
2017-01-18T09:04:36.634Z,67.82
2017-01-18T09:05:50.130Z,68.01
2017-01-18T09:07:03.593Z,68.1
2017-01-18T09:08:17.159Z,68.01
2017-01-18T09:09:30.649Z,67.91
2017-01-18T09:10:44.464Z,68.01
2017-01-18T09:11:57.900Z,67.91
2017-01-18T09:13:11.375Z,68.01
2017-01-18T09:14:24.792Z,68.1
2017-01-18T09:15:38.327Z,68.1
2017-01-18T09:16:52.600Z,67.91
2017-01-18T09:18:06.073Z,67.82
2017-01-18T09:19:20.034Z,67.82
2017-01-18T09:20:36.065Z,67.25
2017-01-18T09:21:49.496Z,67.07
2017-01-18T09:23:03.255Z,67.35
2017-01-18T09:24:16.775Z,66.97
2017-01-18T09:25:30.198Z,66.97
2017-01-18T09:26:44.076Z,67.44
2017-01-18T09:27:57.956Z,67.07
2017-01-18T09:29:11.777Z,67.63
2017-01-18T09:30:25.327Z,67.35
2017-01-18T09:31:38.746Z,67.44
2017-01-18T09:32:52.160Z,67.25
2017-01-18T09:34:05.566Z,67.54
2017-01-18T09:35:19.440Z,67.25
2017-01-18T09:36:32.868Z,67.54
2017-01-18T09:37:46.281Z,67.35
2017-01-18T09:38:59.711Z,67.63
2017-01-18T09:40:13.240Z,67.35
2017-01-18T09:41:26.963Z,67.07
2017-01-18T09:42:40.423Z,67.16
2017-01-18T09:43:54.456Z,66.88
2017-01-18T09:45:07.968Z,67.07
2017-01-18T09:46:21.424Z,66.69
2017-01-18T09:47:35.136Z,66.88
2017-01-18T09:48:48.565Z,66.59
2017-01-18T09:50:02.050Z,66.59
2017-01-18T09:51:15.580Z,66.97
2017-01-18T09:52:28.992Z,67.44
2017-01-18T09:53:42.719Z,67.35
2017-01-18T09:54:56.135Z,67.44
2017-01-18T09:56:09.693Z,67.25
2017-01-18T09:57:23.185Z,67.44
2017-01-18T09:58:36.645Z,67.35
2017-01-18T09:59:50.869Z,67.44
2017-01-18T10:01:04.431Z,67.07
2017-01-18T10:02:17.886Z,67.07
2017-01-18T10:03:31.944Z,66.59
2017-01-18T10:04:45.427Z,66.41
2017-01-18T10:05:59.248Z,65.87
2017-01-18T10:07:12.743Z,66.22
2017-01-18T10:08:26.257Z,65.87
2017-01-18T10:09:40.187Z,65.68
2017-01-18T10:10:53.703Z,65.97
2017-01-18T10:12:07.547Z,65.65
2017-01-18T10:13:21.069Z,65.68
2017-01-18T10:14:35.043Z,65.97
2017-01-18T10:15:48.498Z,65.21
2017-01-18T10:17:03.280Z,65.49
2017-01-18T10:18:16.947Z,64.64
2017-01-18T10:19:30.404Z,64.92
2017-01-18T10:20:43.834Z,64.92
2017-01-18T10:21:57.284Z,64.64
2017-01-18T10:23:10.977Z,64.92
2017-01-18T10:24:24.699Z,64.83
2017-01-18T10:25:38.160Z,64.26
2017-01-18T10:26:51.567Z,64.17
2017-01-18T10:28:05.081Z,64.45
2017-01-18T10:29:18.605Z,64.54
2017-01-18T10:30:32.323Z,64.92
2017-01-18T10:31:45.732Z,65.02
2017-01-18T10:32:59.266Z,64.36
2017-01-18T10:34:12.700Z,64.64
2017-01-18T10:35:26.166Z,64.54
2017-01-18T10:36:42.141Z,64.54
2017-01-18T10:37:56.511Z,64.54
2017-01-18T10:39:09.952Z,64.73
2017-01-18T10:40:23.408Z,64.73
2017-01-18T10:41:36.827Z,63.98
2017-01-18T10:42:50.524Z,64.17
2017-01-18T10:44:04.043Z,64.07
2017-01-18T10:45:17.484Z,63.98
2017-01-18T10:46:30.936Z,64.26
2017-01-18T10:47:44.355Z,64.26
2017-01-18T10:48:58.235Z,64.07
2017-01-18T10:50:11.700Z,64.07
2017-01-18T10:51:51.250Z,64.36
2017-01-18T10:53:04.762Z,63.89
2017-01-18T10:54:18.559Z,64.07
2017-01-18T10:55:32.053Z,64.17
2017-01-18T10:56:45.551Z,64.07
2017-01-18T10:57:59.414Z,64.07
2017-01-18T10:59:12.970Z,63.79
2017-01-18T11:00:26.704Z,63.6
2017-01-18T11:01:40.193Z,63.6
2017-01-18T11:02:53.595Z,63.7
2017-01-18T11:04:07.052Z,63.13
2017-01-18T11:05:20.572Z,63.51
2017-01-18T11:06:34.712Z,63.04
2017-01-18T11:07:48.193Z,62.75
2017-01-18T11:09:01.692Z,62.66
2017-01-18T11:10:15.725Z,62.56
2017-01-18T11:11:29.204Z,62.56
2017-01-18T11:12:43.067Z,62.56
2017-01-18T11:13:56.967Z,62.28
2017-01-18T11:15:10.936Z,62.56
2017-01-18T11:16:24.428Z,62.18
2017-01-18T11:17:38.062Z,62.28
2017-01-18T11:18:52.291Z,62.09
2017-01-18T11:20:05.787Z,62.28
2017-01-18T11:21:20.599Z,62.09
2017-01-18T11:22:34.106Z,62.28
2017-01-18T11:23:47.587Z,62.37
2017-01-18T11:25:01.526Z,61.9
2017-01-18T11:26:15.153Z,61.8
2017-01-18T11:27:28.613Z,61.8
2017-01-18T11:28:42.104Z,61.61
2017-01-18T11:29:55.568Z,61.43
2017-01-18T11:31:09.379Z,61.52
2017-01-18T11:32:23.365Z,61.43
2017-01-18T11:33:36.859Z,62.09
2017-01-18T11:34:50.775Z,62.37
2017-01-18T11:36:04.291Z,62.37
2017-01-18T11:37:19.418Z,61.05
2017-01-18T11:38:32.890Z,60.39
2017-01-18T11:39:46.815Z,60.01
2017-01-18T11:41:00.254Z,60.11
2017-01-18T11:42:14.999Z,60.11
2017-01-18T11:44:39.059Z,59.82
2017-01-18T11:45:52.932Z,60.3
2017-01-18T11:47:06.833Z,60.96
2017-01-18T11:48:20.335Z,60.96
2017-01-18T11:49:34.509Z,61.24
2017-01-18T11:50:47.990Z,61.24
2017-01-18T11:52:01.830Z,60.96
2017-01-18T11:53:15.410Z,60.52
2017-01-18T11:54:31.045Z,60.67
2017-01-18T11:55:45.640Z,60.3
2017-01-18T11:56:59.116Z,60.58
2017-01-18T11:58:12.741Z,60.96
2017-01-18T11:59:26.166Z,60.58
2017-01-18T12:00:39.596Z,61.15
2017-01-18T12:01:53.326Z,60.77
2017-01-18T12:03:06.810Z,61.24
2017-01-18T12:04:21.659Z,60.96
2017-01-18T12:06:26.738Z,60.99
2017-01-18T12:07:40.926Z,60.42
2017-01-18T12:08:55.742Z,60.58
2017-01-18T12:10:09.635Z,60.52
2017-01-18T12:11:23.163Z,60.3
2017-01-18T12:12:36.634Z,60.42
2017-01-18T12:14:37.292Z,60.58
2017-01-18T12:15:50.772Z,60.3
2017-01-18T12:17:04.202Z,60.52
2017-01-18T12:18:19.514Z,60.23
2017-01-18T12:19:33.280Z,60.04
2017-01-18T12:20:46.856Z,60.61
2017-01-18T12:22:00.311Z,60.33
2017-01-18T12:23:13.792Z,60.7
2017-01-18T12:24:27.259Z,59.95
2017-01-18T12:25:41.527Z,60.04
2017-01-18T12:26:54.978Z,60.52
2017-01-18T12:28:18.750Z,60.04
2017-01-18T12:29:32.283Z,60.04
2017-01-18T12:30:45.851Z,60.14
2017-01-18T12:31:59.650Z,60.42
2017-01-18T12:33:13.128Z,60.14
2017-01-18T12:34:26.566Z,59.95
2017-01-18T12:35:40.122Z,59.95
2017-01-18T12:36:53.671Z,60.33
2017-01-18T12:38:07.424Z,60.61
2017-01-18T12:39:20.868Z,60.52
2017-01-18T12:40:34.751Z,59.76
2017-01-18T12:41:49.496Z,59.85
2017-01-18T12:43:03.030Z,60.04
2017-01-18T12:44:16.481Z,60.14
2017-01-18T12:45:29.952Z,59.95
2017-01-18T12:46:43.529Z,60.14
2017-01-18T12:47:57.033Z,59.76
2017-01-18T12:49:10.483Z,59.47
2017-01-18T12:50:24.299Z,59.28
2017-01-18T12:51:37.820Z,58.91
2017-01-18T12:52:51.363Z,59.19
2017-01-18T12:54:05.364Z,58.62
2017-01-18T12:55:18.846Z,58.81
2017-01-18T12:56:32.582Z,58.34
2017-01-18T12:57:46.157Z,58.53
2017-01-18T12:58:59.594Z,58.53
2017-01-18T13:00:13.061Z,59.19
2017-01-18T13:01:26.517Z,58.72
2017-01-18T13:02:40.328Z,58.72
2017-01-18T13:03:53.843Z,58.81
2017-01-18T13:05:07.331Z,58.91
2017-01-18T13:06:20.815Z,58.53
2017-01-18T13:07:34.333Z,58.53
2017-01-18T13:08:48.150Z,58.53
2017-01-18T13:10:01.611Z,58.25
2017-01-18T13:11:15.098Z,58.25
2017-01-18T13:12:30.717Z,58.15
2017-01-18T13:13:44.802Z,58.06
2017-01-18T13:14:58.595Z,57.96
2017-01-18T13:16:12.126Z,57.49
2017-01-18T13:17:25.608Z,57.77
2017-01-18T13:18:39.212Z,57.68
2017-01-18T13:19:52.679Z,57.77
2017-01-18T13:21:06.445Z,57.58
2017-01-18T13:22:19.904Z,57.58
2017-01-18T13:23:33.441Z,57.39
2017-01-18T13:24:46.916Z,56.73
2017-01-18T13:26:00.403Z,56.82
2017-01-18T13:27:14.179Z,56.73
2017-01-18T13:28:27.695Z,56.63
2017-01-18T13:29:41.359Z,56.82
2017-01-18T13:30:54.825Z,56.82
2017-01-18T13:32:08.786Z,56.73
2017-01-18T13:33:22.361Z,56.35
2017-01-18T13:34:37.853Z,56.45
2017-01-18T13:35:51.349Z,56.45
2017-01-18T13:37:04.813Z,56.63
2017-01-18T13:38:18.350Z,56.73
2017-01-18T13:39:32.189Z,56.07
2017-01-18T13:40:45.721Z,56.54
2017-01-18T13:41:59.167Z,56.73
2017-01-18T13:43:12.623Z,56.63
2017-01-18T13:44:26.087Z,56.45
2017-01-18T13:45:41.288Z,56.45
2017-01-18T13:46:54.741Z,56.92
2017-01-18T13:48:08.200Z,56.63
2017-01-18T13:49:21.713Z,56.26
2017-01-18T13:50:35.244Z,56.35
2017-01-18T13:51:49.007Z,56.35
2017-01-18T13:53:02.543Z,55.98
2017-01-18T13:54:16.448Z,56.54
2017-01-18T13:55:29.948Z,56.54
2017-01-18T13:56:43.452Z,56.45
2017-01-18T13:57:57.654Z,56.35
2017-01-18T13:59:11.044Z,56.16
2017-01-18T14:00:24.473Z,56.92
2017-01-18T14:01:37.969Z,56.07
2017-01-18T14:02:51.613Z,56.26
2017-01-18T14:04:05.338Z,56.16
2017-01-18T14:05:19.186Z,55.98
2017-01-18T14:06:32.746Z,56.07
2017-01-18T14:07:46.215Z,56.54
2017-01-18T14:08:59.641Z,56.07
2017-01-18T14:10:13.376Z,56.26
2017-01-18T14:11:26.879Z,55.88
2017-01-18T14:12:51.497Z,56.35
2017-01-18T14:14:05.016Z,56.26
2017-01-18T14:15:18.530Z,55.98
2017-01-18T14:16:32.452Z,56.16
2017-01-18T14:17:45.929Z,56.26
2017-01-18T14:18:59.348Z,55.98
2017-01-18T14:20:12.784Z,55.98
2017-01-18T14:21:26.246Z,56.07
2017-01-18T14:22:40.016Z,56.26
2017-01-18T14:23:53.673Z,55.79
2017-01-18T14:25:07.122Z,56.07
2017-01-18T14:26:21.000Z,56.07
2017-01-18T14:27:34.476Z,56.35
2017-01-18T14:28:50.453Z,56.16
2017-01-18T14:30:03.922Z,56.16
2017-01-18T14:31:17.393Z,56.16
2017-01-18T14:32:30.870Z,56.26
2017-01-18T14:33:44.420Z,56.16
2017-01-18T14:34:58.160Z,56.16
2017-01-18T14:36:12.103Z,56.26
2017-01-18T14:37:25.994Z,56.26
2017-01-18T14:38:39.909Z,56.35
2017-01-18T14:39:53.402Z,56.16
2017-01-18T14:41:07.172Z,56.07
2017-01-18T14:42:20.590Z,55.79
2017-01-18T14:43:34.258Z,56.16
2017-01-18T14:44:49.816Z,56.26
2017-01-18T14:46:03.236Z,56.16
2017-01-18T14:47:17.456Z,56.35
2017-01-18T14:48:30.907Z,56.16
2017-01-18T14:49:45.648Z,56.63
2017-01-18T14:50:59.110Z,56.45
2017-01-18T14:52:12.583Z,56.35
2017-01-18T14:53:25.991Z,56.35
2017-01-18T14:54:39.450Z,56.35
2017-01-18T14:55:54.304Z,56.26
2017-01-18T14:57:07.817Z,56.16
2017-01-18T14:58:21.378Z,56.26
2017-01-18T14:59:35.574Z,56.73
2017-01-18T15:00:49.538Z,56.26
2017-01-18T15:02:03.002Z,56.35
2017-01-18T15:03:16.461Z,56.45
2017-01-18T15:04:29.885Z,56.63
2017-01-18T15:05:43.700Z,57.01
2017-01-18T15:06:57.126Z,56.82
2017-01-18T15:08:10.646Z,56.63
2017-01-18T15:09:24.475Z,56.82
2017-01-18T15:10:38.322Z,56.54
2017-01-18T15:11:53.041Z,56.35
2017-01-18T15:13:06.450Z,56.92
2017-01-18T15:14:20.073Z,57.01
2017-01-18T15:15:33.699Z,57.11
2017-01-18T15:16:48.833Z,57.3
2017-01-18T15:18:02.549Z,57.01
2017-01-18T15:19:16.089Z,57.3
2017-01-18T15:20:29.539Z,57.01
2017-01-18T15:21:44.139Z,57.58
2017-01-18T15:22:58.255Z,57.49
2017-01-18T15:24:12.024Z,57.39
2017-01-18T15:25:25.454Z,57.39
2017-01-18T15:26:40.150Z,57.87
2017-01-18T15:27:53.630Z,57.3
2017-01-18T15:29:07.094Z,57.68
2017-01-18T15:30:20.851Z,57.49
2017-01-18T15:31:34.321Z,57.87
2017-01-18T15:32:47.891Z,57.39
2017-01-18T15:34:01.841Z,57.58
2017-01-18T15:35:15.553Z,57.3
2017-01-18T15:36:29.696Z,57.58
2017-01-18T15:37:45.054Z,57.87
2017-01-18T15:38:58.491Z,57.68
2017-01-18T15:40:12.087Z,58.25
2017-01-18T15:41:25.842Z,57.96
2017-01-18T15:42:41.104Z,57.96
2017-01-18T15:43:54.980Z,58.53
2017-01-18T15:45:11.127Z,58.62
2017-01-18T15:46:25.087Z,58.34
2017-01-18T15:47:38.599Z,58.44
2017-01-18T15:48:53.426Z,58.53
2017-01-18T15:50:06.977Z,58.62
2017-01-18T15:51:20.936Z,58.44
2017-01-18T15:52:34.380Z,58.15
2017-01-18T15:53:50.288Z,58.53
2017-01-18T15:55:04.069Z,58.81
2017-01-18T15:56:17.536Z,58.62
2017-01-18T15:57:30.986Z,58.62
2017-01-18T15:58:44.536Z,59.19
2017-01-18T15:59:59.159Z,59.47
2017-01-18T16:01:12.856Z,59.47